sensor_id;sensor_type;location;lat;lon;timestamp;P1;durP1;ratioP1;P2;durP2;ratioP2
72284;SDS011;60220;53.552;10.092;2024-01-11T00:00:43;32.75;;;11.25;;
72284;SDS011;60220;53.552;10.092;2024-01-11T00:03:09;25.40;;;11.27;;
72284;SDS011;60220;53.552;10.092;2024-01-11T00:05:37;28.60;;;10.27;;
72284;SDS011;60220;53.552;10.092;2024-01-11T00:08:04;27.00;;;10.27;;
72284;SDS011;60220;53.552;10.092;2024-01-11T00:10:31;26.25;;;10.65;;
72284;SDS011;60220;53.552;10.092;2024-01-11T00:12:57;24.50;;;8.88;;
72284;SDS011;60220;53.552;10.092;2024-01-11T00:15:28;20.67;;;8.93;;
72284;SDS011;60220;53.552;10.092;2024-01-11T00:17:55;19.65;;;7.47;;
72284;SDS011;60220;53.552;10.092;2024-01-11T00:20:21;22.10;;;9.70;;
72284;SDS011;60220;53.552;10.092;2024-01-11T00:22:48;18.38;;;8.52;;
72284;SDS011;60220;53.552;10.092;2024-01-11T00:25:15;27.42;;;10.20;;
72284;SDS011;60220;53.552;10.092;2024-01-11T00:27:41;26.23;;;9.90;;
72284;SDS011;60220;53.552;10.092;2024-01-11T00:30:08;25.00;;;8.80;;
72284;SDS011;60220;53.552;10.092;2024-01-11T00:32:38;26.70;;;9.80;;
72284;SDS011;60220;53.552;10.092;2024-01-11T00:35:07;23.73;;;8.68;;
72284;SDS011;60220;53.552;10.092;2024-01-11T00:37:36;29.33;;;10.88;;
72284;SDS011;60220;53.552;10.092;2024-01-11T00:40:06;32.80;;;11.68;;
72284;SDS011;60220;53.552;10.092;2024-01-11T00:42:33;23.80;;;10.57;;
72284;SDS011;60220;53.552;10.092;2024-01-11T00:45:00;25.27;;;9.60;;
72284;SDS011;60220;53.552;10.092;2024-01-11T00:47:27;23.60;;;10.48;;
72284;SDS011;60220;53.552;10.092;2024-01-11T00:49:55;25.20;;;8.98;;
72284;SDS011;60220;53.552;10.092;2024-01-11T00:52:21;25.23;;;10.18;;
72284;SDS011;60220;53.552;10.092;2024-01-11T00:54:48;25.10;;;9.32;;
72284;SDS011;60220;53.552;10.092;2024-01-11T00:57:15;24.20;;;9.07;;
72284;SDS011;60220;53.552;10.092;2024-01-11T00:59:41;26.73;;;9.52;;
72284;SDS011;60220;53.552;10.092;2024-01-11T01:02:10;27.50;;;8.52;;
72284;SDS011;60220;53.552;10.092;2024-01-11T01:04:38;29.60;;;9.75;;
72284;SDS011;60220;53.552;10.092;2024-01-11T01:07:06;26.50;;;9.73;;
72284;SDS011;60220;53.552;10.092;2024-01-11T01:09:33;25.10;;;9.63;;
72284;SDS011;60220;53.552;10.092;2024-01-11T01:11:59;20.92;;;8.50;;
72284;SDS011;60220;53.552;10.092;2024-01-11T01:14:27;25.10;;;8.70;;
72284;SDS011;60220;53.552;10.092;2024-01-11T01:16:53;28.55;;;10.98;;
72284;SDS011;60220;53.552;10.092;2024-01-11T01:19:22;29.65;;;10.73;;
72284;SDS011;60220;53.552;10.092;2024-01-11T01:21:51;23.08;;;8.88;;
72284;SDS011;60220;53.552;10.092;2024-01-11T01:24:19;23.75;;;9.30;;
72284;SDS011;60220;53.552;10.092;2024-01-11T01:26:46;26.80;;;9.50;;
72284;SDS011;60220;53.552;10.092;2024-01-11T01:29:14;26.10;;;8.98;;
72284;SDS011;60220;53.552;10.092;2024-01-11T01:31:43;24.73;;;9.13;;
72284;SDS011;60220;53.552;10.092;2024-01-11T01:34:09;25.55;;;8.52;;
72284;SDS011;60220;53.552;10.092;2024-01-11T01:36:36;29.80;;;9.98;;
72284;SDS011;60220;53.552;10.092;2024-01-11T01:39:02;27.20;;;10.63;;
72284;SDS011;60220;53.552;10.092;2024-01-11T01:41:30;25.13;;;10.13;;
72284;SDS011;60220;53.552;10.092;2024-01-11T01:43:59;32.38;;;9.43;;
72284;SDS011;60220;53.552;10.092;2024-01-11T01:46:28;27.48;;;10.73;;
72284;SDS011;60220;53.552;10.092;2024-01-11T01:48:56;24.05;;;9.68;;
72284;SDS011;60220;53.552;10.092;2024-01-11T01:51:24;21.08;;;8.27;;
72284;SDS011;60220;53.552;10.092;2024-01-11T01:53:55;24.48;;;9.20;;
72284;SDS011;60220;53.552;10.092;2024-01-11T01:56:25;20.98;;;7.32;;
72284;SDS011;60220;53.552;10.092;2024-01-11T01:58:53;25.17;;;9.40;;
72284;SDS011;60220;53.552;10.092;2024-01-11T02:01:21;19.65;;;8.18;;
72284;SDS011;60220;53.552;10.092;2024-01-11T02:03:49;21.58;;;8.27;;
72284;SDS011;60220;53.552;10.092;2024-01-11T02:06:17;18.63;;;7.70;;
72284;SDS011;60220;53.552;10.092;2024-01-11T02:08:47;21.08;;;7.93;;
72284;SDS011;60220;53.552;10.092;2024-01-11T02:11:15;22.35;;;8.68;;
72284;SDS011;60220;53.552;10.092;2024-01-11T02:13:42;23.83;;;8.85;;
72284;SDS011;60220;53.552;10.092;2024-01-11T02:16:12;17.95;;;8.13;;
72284;SDS011;60220;53.552;10.092;2024-01-11T02:18:39;28.20;;;9.27;;
72284;SDS011;60220;53.552;10.092;2024-01-11T02:21:06;18.63;;;8.32;;
72284;SDS011;60220;53.552;10.092;2024-01-11T02:23:40;22.60;;;8.30;;
72284;SDS011;60220;53.552;10.092;2024-01-11T02:26:13;22.45;;;8.15;;
72284;SDS011;60220;53.552;10.092;2024-01-11T02:28:42;25.67;;;9.73;;
72284;SDS011;60220;53.552;10.092;2024-01-11T02:31:10;27.38;;;9.40;;
72284;SDS011;60220;53.552;10.092;2024-01-11T02:33:40;24.80;;;9.15;;
72284;SDS011;60220;53.552;10.092;2024-01-11T02:36:09;26.25;;;9.32;;
72284;SDS011;60220;53.552;10.092;2024-01-11T02:38:36;27.08;;;10.23;;
72284;SDS011;60220;53.552;10.092;2024-01-11T02:41:05;27.88;;;9.73;;
72284;SDS011;60220;53.552;10.092;2024-01-11T02:43:35;21.63;;;9.55;;
72284;SDS011;60220;53.552;10.092;2024-01-11T02:46:02;27.55;;;10.48;;
72284;SDS011;60220;53.552;10.092;2024-01-11T02:48:29;26.08;;;10.05;;
72284;SDS011;60220;53.552;10.092;2024-01-11T02:50:56;24.75;;;10.35;;
72284;SDS011;60220;53.552;10.092;2024-01-11T02:53:23;26.08;;;10.20;;
72284;SDS011;60220;53.552;10.092;2024-01-11T02:55:52;29.83;;;10.27;;
72284;SDS011;60220;53.552;10.092;2024-01-11T02:58:19;28.83;;;10.40;;
72284;SDS011;60220;53.552;10.092;2024-01-11T03:00:47;28.70;;;11.15;;
72284;SDS011;60220;53.552;10.092;2024-01-11T03:03:16;27.42;;;10.82;;
72284;SDS011;60220;53.552;10.092;2024-01-11T03:05:43;30.40;;;11.77;;
72284;SDS011;60220;53.552;10.092;2024-01-11T03:08:09;28.15;;;10.43;;
72284;SDS011;60220;53.552;10.092;2024-01-11T03:10:36;33.55;;;11.52;;
72284;SDS011;60220;53.552;10.092;2024-01-11T03:13:04;37.65;;;12.93;;
72284;SDS011;60220;53.552;10.092;2024-01-11T03:15:33;34.55;;;11.25;;
72284;SDS011;60220;53.552;10.092;2024-01-11T03:18:01;34.83;;;12.40;;
72284;SDS011;60220;53.552;10.092;2024-01-11T03:20:28;31.42;;;12.10;;
72284;SDS011;60220;53.552;10.092;2024-01-11T03:22:57;35.25;;;11.88;;
72284;SDS011;60220;53.552;10.092;2024-01-11T03:25:24;33.63;;;10.88;;
72284;SDS011;60220;53.552;10.092;2024-01-11T03:27:53;42.10;;;13.05;;
72284;SDS011;60220;53.552;10.092;2024-01-11T03:30:19;36.47;;;12.95;;
72284;SDS011;60220;53.552;10.092;2024-01-11T03:32:50;37.05;;;11.95;;
72284;SDS011;60220;53.552;10.092;2024-01-11T03:35:18;35.20;;;13.30;;
72284;SDS011;60220;53.552;10.092;2024-01-11T03:37:47;32.92;;;10.90;;
72284;SDS011;60220;53.552;10.092;2024-01-11T03:40:14;31.75;;;10.50;;
72284;SDS011;60220;53.552;10.092;2024-01-11T03:42:41;30.40;;;9.60;;
72284;SDS011;60220;53.552;10.092;2024-01-11T03:45:08;35.10;;;11.90;;
72284;SDS011;60220;53.552;10.092;2024-01-11T03:47:35;31.67;;;11.60;;
72284;SDS011;60220;53.552;10.092;2024-01-11T03:50:02;33.05;;;10.68;;
72284;SDS011;60220;53.552;10.092;2024-01-11T03:52:30;31.83;;;12.43;;
72284;SDS011;60220;53.552;10.092;2024-01-11T03:54:59;29.15;;;11.15;;
72284;SDS011;60220;53.552;10.092;2024-01-11T03:57:26;32.83;;;11.32;;
72284;SDS011;60220;53.552;10.092;2024-01-11T03:59:52;34.40;;;11.80;;
72284;SDS011;60220;53.552;10.092;2024-01-11T04:02:19;30.42;;;10.13;;
72284;SDS011;60220;53.552;10.092;2024-01-11T04:04:46;32.00;;;11.15;;
72284;SDS011;60220;53.552;10.092;2024-01-11T04:07:12;30.35;;;11.10;;
72284;SDS011;60220;53.552;10.092;2024-01-11T04:09:43;29.23;;;10.55;;
72284;SDS011;60220;53.552;10.092;2024-01-11T04:12:12;30.00;;;11.00;;
72284;SDS011;60220;53.552;10.092;2024-01-11T04:14:38;30.45;;;10.07;;
72284;SDS011;60220;53.552;10.092;2024-01-11T04:17:06;26.20;;;9.68;;
72284;SDS011;60220;53.552;10.092;2024-01-11T04:19:32;28.60;;;11.25;;
72284;SDS011;60220;53.552;10.092;2024-01-11T04:22:01;27.00;;;10.48;;
72284;SDS011;60220;53.552;10.092;2024-01-11T04:24:28;31.02;;;10.68;;
72284;SDS011;60220;53.552;10.092;2024-01-11T04:26:56;36.13;;;11.40;;
72284;SDS011;60220;53.552;10.092;2024-01-11T04:29:23;37.05;;;12.82;;
72284;SDS011;60220;53.552;10.092;2024-01-11T04:31:49;34.63;;;12.02;;
72284;SDS011;60220;53.552;10.092;2024-01-11T04:34:16;30.83;;;11.55;;
72284;SDS011;60220;53.552;10.092;2024-01-11T04:36:43;32.53;;;12.68;;
72284;SDS011;60220;53.552;10.092;2024-01-11T04:39:10;41.85;;;14.93;;
72284;SDS011;60220;53.552;10.092;2024-01-11T04:41:37;37.20;;;13.82;;
72284;SDS011;60220;53.552;10.092;2024-01-11T04:44:07;35.08;;;13.80;;
72284;SDS011;60220;53.552;10.092;2024-01-11T04:46:34;45.10;;;14.68;;
72284;SDS011;60220;53.552;10.092;2024-01-11T04:49:01;41.28;;;15.82;;
72284;SDS011;60220;53.552;10.092;2024-01-11T04:51:28;52.40;;;15.65;;
72284;SDS011;60220;53.552;10.092;2024-01-11T04:53:54;43.38;;;14.32;;
72284;SDS011;60220;53.552;10.092;2024-01-11T04:56:24;49.17;;;16.05;;
72284;SDS011;60220;53.552;10.092;2024-01-11T04:58:53;43.33;;;15.32;;
72284;SDS011;60220;53.552;10.092;2024-01-11T05:01:22;56.45;;;17.58;;
72284;SDS011;60220;53.552;10.092;2024-01-11T05:03:49;52.78;;;17.52;;
72284;SDS011;60220;53.552;10.092;2024-01-11T05:06:16;48.20;;;16.35;;
72284;SDS011;60220;53.552;10.092;2024-01-11T05:08:43;49.47;;;16.55;;
72284;SDS011;60220;53.552;10.092;2024-01-11T05:11:14;45.50;;;15.30;;
72284;SDS011;60220;53.552;10.092;2024-01-11T05:13:44;50.53;;;16.63;;
72284;SDS011;60220;53.552;10.092;2024-01-11T05:16:17;49.53;;;16.55;;
72284;SDS011;60220;53.552;10.092;2024-01-11T05:18:46;44.13;;;16.60;;
72284;SDS011;60220;53.552;10.092;2024-01-11T05:21:13;54.72;;;18.13;;
72284;SDS011;60220;53.552;10.092;2024-01-11T05:23:40;51.92;;;17.88;;
72284;SDS011;60220;53.552;10.092;2024-01-11T05:26:07;49.15;;;17.77;;
72284;SDS011;60220;53.552;10.092;2024-01-11T05:28:34;50.05;;;17.42;;
72284;SDS011;60220;53.552;10.092;2024-01-11T05:31:01;55.28;;;19.15;;
72284;SDS011;60220;53.552;10.092;2024-01-11T05:33:28;49.00;;;17.20;;
72284;SDS011;60220;53.552;10.092;2024-01-11T05:35:56;52.15;;;17.88;;
72284;SDS011;60220;53.552;10.092;2024-01-11T05:38:22;51.42;;;17.60;;
72284;SDS011;60220;53.552;10.092;2024-01-11T05:40:53;40.03;;;16.02;;
72284;SDS011;60220;53.552;10.092;2024-01-11T05:43:21;50.42;;;16.67;;
72284;SDS011;60220;53.552;10.092;2024-01-11T05:45:50;42.83;;;14.80;;
72284;SDS011;60220;53.552;10.092;2024-01-11T05:48:17;45.47;;;14.90;;
72284;SDS011;60220;53.552;10.092;2024-01-11T05:50:44;49.97;;;15.63;;
72284;SDS011;60220;53.552;10.092;2024-01-11T05:53:13;42.13;;;14.75;;
72284;SDS011;60220;53.552;10.092;2024-01-11T05:55:40;48.17;;;16.67;;
72284;SDS011;60220;53.552;10.092;2024-01-11T05:58:06;47.03;;;17.67;;
72284;SDS011;60220;53.552;10.092;2024-01-11T06:00:35;41.40;;;13.75;;
72284;SDS011;60220;53.552;10.092;2024-01-11T06:03:02;48.53;;;18.23;;
72284;SDS011;60220;53.552;10.092;2024-01-11T06:05:29;43.78;;;15.20;;
72284;SDS011;60220;53.552;10.092;2024-01-11T06:07:56;39.28;;;12.70;;
72284;SDS011;60220;53.552;10.092;2024-01-11T06:10:24;38.22;;;13.55;;
72284;SDS011;60220;53.552;10.092;2024-01-11T06:12:51;45.63;;;15.63;;
72284;SDS011;60220;53.552;10.092;2024-01-11T06:15:17;41.47;;;13.05;;
72284;SDS011;60220;53.552;10.092;2024-01-11T06:17:47;46.90;;;14.05;;
72284;SDS011;60220;53.552;10.092;2024-01-11T06:20:16;40.13;;;13.48;;
72284;SDS011;60220;53.552;10.092;2024-01-11T06:22:43;36.47;;;11.75;;
72284;SDS011;60220;53.552;10.092;2024-01-11T06:25:09;51.88;;;18.92;;
72284;SDS011;60220;53.552;10.092;2024-01-11T06:27:37;37.88;;;13.48;;
72284;SDS011;60220;53.552;10.092;2024-01-11T06:30:05;39.40;;;13.18;;
72284;SDS011;60220;53.552;10.092;2024-01-11T06:32:33;43.20;;;16.98;;
72284;SDS011;60220;53.552;10.092;2024-01-11T06:34:59;67.45;;;24.38;;
72284;SDS011;60220;53.552;10.092;2024-01-11T06:37:27;35.85;;;12.70;;
72284;SDS011;60220;53.552;10.092;2024-01-11T06:39:54;37.60;;;11.38;;
72284;SDS011;60220;53.552;10.092;2024-01-11T06:42:20;38.10;;;13.27;;
72284;SDS011;60220;53.552;10.092;2024-01-11T06:44:48;32.85;;;12.27;;
72284;SDS011;60220;53.552;10.092;2024-01-11T06:47:15;28.27;;;9.63;;
72284;SDS011;60220;53.552;10.092;2024-01-11T06:49:41;33.20;;;11.52;;
72284;SDS011;60220;53.552;10.092;2024-01-11T06:52:08;37.45;;;12.45;;
72284;SDS011;60220;53.552;10.092;2024-01-11T06:54:37;33.33;;;10.82;;
72284;SDS011;60220;53.552;10.092;2024-01-11T06:57:04;34.58;;;9.93;;
72284;SDS011;60220;53.552;10.092;2024-01-11T06:59:31;31.50;;;11.65;;
72284;SDS011;60220;53.552;10.092;2024-01-11T07:01:59;35.13;;;11.70;;
72284;SDS011;60220;53.552;10.092;2024-01-11T07:04:25;31.98;;;10.40;;
72284;SDS011;60220;53.552;10.092;2024-01-11T07:06:52;29.80;;;10.30;;
72284;SDS011;60220;53.552;10.092;2024-01-11T07:09:19;36.67;;;10.77;;
72284;SDS011;60220;53.552;10.092;2024-01-11T07:11:48;28.23;;;10.80;;
72284;SDS011;60220;53.552;10.092;2024-01-11T07:14:17;28.27;;;9.13;;
72284;SDS011;60220;53.552;10.092;2024-01-11T07:16:43;24.60;;;8.45;;
72284;SDS011;60220;53.552;10.092;2024-01-11T07:19:11;31.65;;;9.00;;
72284;SDS011;60220;53.552;10.092;2024-01-11T07:21:38;32.80;;;9.43;;
72284;SDS011;60220;53.552;10.092;2024-01-11T07:24:05;36.70;;;11.15;;
72284;SDS011;60220;53.552;10.092;2024-01-11T07:26:34;26.92;;;8.18;;
72284;SDS011;60220;53.552;10.092;2024-01-11T07:29:01;26.95;;;8.77;;
72284;SDS011;60220;53.552;10.092;2024-01-11T07:31:27;35.08;;;9.32;;
72284;SDS011;60220;53.552;10.092;2024-01-11T07:33:54;26.02;;;9.30;;
72284;SDS011;60220;53.552;10.092;2024-01-11T07:36:22;28.13;;;7.50;;
72284;SDS011;60220;53.552;10.092;2024-01-11T07:38:50;26.92;;;8.55;;
72284;SDS011;60220;53.552;10.092;2024-01-11T07:41:16;19.40;;;6.90;;
72284;SDS011;60220;53.552;10.092;2024-01-11T07:43:45;28.20;;;8.98;;
72284;SDS011;60220;53.552;10.092;2024-01-11T07:46:12;21.90;;;6.07;;
72284;SDS011;60220;53.552;10.092;2024-01-11T07:48:39;22.92;;;7.47;;
72284;SDS011;60220;53.552;10.092;2024-01-11T07:51:05;21.88;;;6.88;;
72284;SDS011;60220;53.552;10.092;2024-01-11T07:53:36;24.58;;;6.57;;
72284;SDS011;60220;53.552;10.092;2024-01-11T07:56:03;21.33;;;6.43;;
72284;SDS011;60220;53.552;10.092;2024-01-11T07:58:30;24.17;;;7.00;;
72284;SDS011;60220;53.552;10.092;2024-01-11T08:00:56;31.38;;;7.32;;
72284;SDS011;60220;53.552;10.092;2024-01-11T08:03:25;27.90;;;6.80;;
72284;SDS011;60220;53.552;10.092;2024-01-11T08:05:52;22.80;;;7.30;;
72284;SDS011;60220;53.552;10.092;2024-01-11T08:08:19;28.58;;;8.02;;
72284;SDS011;60220;53.552;10.092;2024-01-11T08:10:48;33.50;;;7.63;;
72284;SDS011;60220;53.552;10.092;2024-01-11T08:13:18;24.13;;;7.65;;
72284;SDS011;60220;53.552;10.092;2024-01-11T08:15:46;21.02;;;6.78;;
72284;SDS011;60220;53.552;10.092;2024-01-11T08:18:13;27.42;;;7.88;;
72284;SDS011;60220;53.552;10.092;2024-01-11T08:20:40;29.27;;;7.03;;
72284;SDS011;60220;53.552;10.092;2024-01-11T08:23:07;24.70;;;6.18;;
72284;SDS011;60220;53.552;10.092;2024-01-11T08:25:33;18.17;;;5.90;;
72284;SDS011;60220;53.552;10.092;2024-01-11T08:28:05;22.98;;;6.00;;
72284;SDS011;60220;53.552;10.092;2024-01-11T08:30:32;19.83;;;6.03;;
72284;SDS011;60220;53.552;10.092;2024-01-11T08:32:58;19.23;;;6.53;;
72284;SDS011;60220;53.552;10.092;2024-01-11T08:35:25;20.42;;;7.15;;
72284;SDS011;60220;53.552;10.092;2024-01-11T08:37:53;27.40;;;7.18;;
72284;SDS011;60220;53.552;10.092;2024-01-11T08:40:20;20.85;;;5.95;;
72284;SDS011;60220;53.552;10.092;2024-01-11T08:42:46;53.85;;;20.13;;
72284;SDS011;60220;53.552;10.092;2024-01-11T08:45:15;22.00;;;7.35;;
72284;SDS011;60220;53.552;10.092;2024-01-11T08:47:43;20.45;;;6.38;;
72284;SDS011;60220;53.552;10.092;2024-01-11T08:50:12;26.70;;;6.80;;
72284;SDS011;60220;53.552;10.092;2024-01-11T08:52:39;48.72;;;19.30;;
72284;SDS011;60220;53.552;10.092;2024-01-11T08:55:07;40.78;;;14.68;;
72284;SDS011;60220;53.552;10.092;2024-01-11T08:57:34;22.52;;;7.95;;
72284;SDS011;60220;53.552;10.092;2024-01-11T09:00:02;18.77;;;6.18;;
72284;SDS011;60220;53.552;10.092;2024-01-11T09:02:32;15.35;;;5.25;;
72284;SDS011;60220;53.552;10.092;2024-01-11T09:05:00;19.02;;;5.65;;
72284;SDS011;60220;53.552;10.092;2024-01-11T09:07:27;20.90;;;5.65;;
72284;SDS011;60220;53.552;10.092;2024-01-11T09:09:54;21.88;;;5.63;;
72284;SDS011;60220;53.552;10.092;2024-01-11T09:12:20;21.38;;;6.85;;
72284;SDS011;60220;53.552;10.092;2024-01-11T09:14:47;15.65;;;4.40;;
72284;SDS011;60220;53.552;10.092;2024-01-11T09:17:14;17.42;;;5.47;;
72284;SDS011;60220;53.552;10.092;2024-01-11T09:19:45;18.15;;;5.85;;
72284;SDS011;60220;53.552;10.092;2024-01-11T09:22:11;22.52;;;6.90;;
72284;SDS011;60220;53.552;10.092;2024-01-11T09:24:40;22.17;;;6.95;;
72284;SDS011;60220;53.552;10.092;2024-01-11T09:27:09;25.70;;;7.07;;
72284;SDS011;60220;53.552;10.092;2024-01-11T09:29:36;14.95;;;5.53;;
72284;SDS011;60220;53.552;10.092;2024-01-11T09:32:03;24.38;;;7.03;;
72284;SDS011;60220;53.552;10.092;2024-01-11T09:34:30;19.23;;;6.63;;
72284;SDS011;60220;53.552;10.092;2024-01-11T09:36:59;25.65;;;7.25;;
72284;SDS011;60220;53.552;10.092;2024-01-11T09:39:28;25.15;;;7.60;;
72284;SDS011;60220;53.552;10.092;2024-01-11T09:41:57;22.60;;;5.82;;
72284;SDS011;60220;53.552;10.092;2024-01-11T09:44:25;23.80;;;5.85;;
72284;SDS011;60220;53.552;10.092;2024-01-11T09:46:54;24.30;;;6.50;;
72284;SDS011;60220;53.552;10.092;2024-01-11T09:49:23;15.18;;;4.95;;
72284;SDS011;60220;53.552;10.092;2024-01-11T09:51:50;21.95;;;6.35;;
72284;SDS011;60220;53.552;10.092;2024-01-11T09:54:19;20.83;;;5.75;;
72284;SDS011;60220;53.552;10.092;2024-01-11T09:56:47;22.75;;;6.93;;
72284;SDS011;60220;53.552;10.092;2024-01-11T09:59:17;17.85;;;6.07;;
72284;SDS011;60220;53.552;10.092;2024-01-11T10:01:47;21.13;;;6.15;;
72284;SDS011;60220;53.552;10.092;2024-01-11T10:04:17;26.95;;;10.75;;
72284;SDS011;60220;53.552;10.092;2024-01-11T10:06:44;19.77;;;6.05;;
72284;SDS011;60220;53.552;10.092;2024-01-11T10:09:13;24.85;;;5.88;;
72284;SDS011;60220;53.552;10.092;2024-01-11T10:11:43;16.23;;;6.15;;
72284;SDS011;60220;53.552;10.092;2024-01-11T10:14:12;26.08;;;7.35;;
72284;SDS011;60220;53.552;10.092;2024-01-11T10:16:39;31.77;;;8.73;;
72284;SDS011;60220;53.552;10.092;2024-01-11T10:19:07;20.80;;;6.88;;
72284;SDS011;60220;53.552;10.092;2024-01-11T10:21:37;28.33;;;7.32;;
72284;SDS011;60220;53.552;10.092;2024-01-11T10:24:05;28.88;;;7.95;;
72284;SDS011;60220;53.552;10.092;2024-01-11T10:26:35;23.27;;;7.72;;
72284;SDS011;60220;53.552;10.092;2024-01-11T10:29:03;23.17;;;7.03;;
72284;SDS011;60220;53.552;10.092;2024-01-11T10:31:36;26.15;;;8.30;;
72284;SDS011;60220;53.552;10.092;2024-01-11T10:34:03;25.30;;;6.35;;
72284;SDS011;60220;53.552;10.092;2024-01-11T10:36:30;26.30;;;8.05;;
72284;SDS011;60220;53.552;10.092;2024-01-11T10:38:57;26.05;;;7.28;;
72284;SDS011;60220;53.552;10.092;2024-01-11T10:41:28;32.17;;;7.55;;
72284;SDS011;60220;53.552;10.092;2024-01-11T10:43:58;26.88;;;8.63;;
72284;SDS011;60220;53.552;10.092;2024-01-11T10:46:29;24.50;;;8.00;;
72284;SDS011;60220;53.552;10.092;2024-01-11T10:48:58;30.40;;;10.73;;
72284;SDS011;60220;53.552;10.092;2024-01-11T10:51:31;50.83;;;17.30;;
72284;SDS011;60220;53.552;10.092;2024-01-11T10:53:58;26.60;;;8.90;;
72284;SDS011;60220;53.552;10.092;2024-01-11T10:56:29;27.48;;;8.85;;
72284;SDS011;60220;53.552;10.092;2024-01-11T10:58:57;33.83;;;9.20;;
72284;SDS011;60220;53.552;10.092;2024-01-11T11:01:25;25.38;;;9.02;;
72284;SDS011;60220;53.552;10.092;2024-01-11T11:03:54;27.33;;;9.20;;
72284;SDS011;60220;53.552;10.092;2024-01-11T11:06:24;27.40;;;8.93;;
72284;SDS011;60220;53.552;10.092;2024-01-11T11:08:52;25.13;;;7.47;;
72284;SDS011;60220;53.552;10.092;2024-01-11T11:11:19;20.98;;;7.65;;
72284;SDS011;60220;53.552;10.092;2024-01-11T11:13:47;25.80;;;9.43;;
72284;SDS011;60220;53.552;10.092;2024-01-11T11:16:14;31.08;;;10.20;;
72284;SDS011;60220;53.552;10.092;2024-01-11T11:18:41;30.67;;;8.48;;
72284;SDS011;60220;53.552;10.092;2024-01-11T11:21:10;23.13;;;9.35;;
72284;SDS011;60220;53.552;10.092;2024-01-11T11:23:37;35.15;;;10.02;;
72284;SDS011;60220;53.552;10.092;2024-01-11T11:26:05;31.80;;;8.98;;
72284;SDS011;60220;53.552;10.092;2024-01-11T11:28:32;26.83;;;8.07;;
72284;SDS011;60220;53.552;10.092;2024-01-11T11:31:02;32.47;;;9.93;;
72284;SDS011;60220;53.552;10.092;2024-01-11T11:33:29;27.83;;;8.65;;
72284;SDS011;60220;53.552;10.092;2024-01-11T11:35:57;30.95;;;9.13;;
72284;SDS011;60220;53.552;10.092;2024-01-11T11:38:26;30.80;;;8.35;;
72284;SDS011;60220;53.552;10.092;2024-01-11T11:40:55;37.13;;;11.65;;
72284;SDS011;60220;53.552;10.092;2024-01-11T11:43:25;36.90;;;11.85;;
72284;SDS011;60220;53.552;10.092;2024-01-11T11:45:53;25.42;;;8.55;;
72284;SDS011;60220;53.552;10.092;2024-01-11T11:51:16;25.67;;;8.57;;
72284;SDS011;60220;53.552;10.092;2024-01-11T11:53:46;35.97;;;8.57;;
72284;SDS011;60220;53.552;10.092;2024-01-11T11:56:13;24.60;;;8.77;;
72284;SDS011;60220;53.552;10.092;2024-01-11T11:58:42;23.48;;;9.05;;
72284;SDS011;60220;53.552;10.092;2024-01-11T12:01:10;25.83;;;8.80;;
72284;SDS011;60220;53.552;10.092;2024-01-11T12:03:38;29.83;;;10.30;;
72284;SDS011;60220;53.552;10.092;2024-01-11T12:06:14;24.05;;;9.07;;
72284;SDS011;60220;53.552;10.092;2024-01-11T12:08:42;27.20;;;8.45;;
72284;SDS011;60220;53.552;10.092;2024-01-11T12:11:10;25.13;;;8.60;;
72284;SDS011;60220;53.552;10.092;2024-01-11T12:13:40;23.73;;;8.32;;
72284;SDS011;60220;53.552;10.092;2024-01-11T12:16:08;25.25;;;8.02;;
72284;SDS011;60220;53.552;10.092;2024-01-11T12:18:35;25.15;;;9.27;;
72284;SDS011;60220;53.552;10.092;2024-01-11T12:21:02;26.33;;;8.05;;
72284;SDS011;60220;53.552;10.092;2024-01-11T12:23:31;27.27;;;8.65;;
72284;SDS011;60220;53.552;10.092;2024-01-11T12:26:02;25.17;;;7.57;;
72284;SDS011;60220;53.552;10.092;2024-01-11T12:28:32;34.33;;;9.02;;
72284;SDS011;60220;53.552;10.092;2024-01-11T12:30:59;26.13;;;9.48;;
72284;SDS011;60220;53.552;10.092;2024-01-11T12:33:26;26.05;;;8.25;;
72284;SDS011;60220;53.552;10.092;2024-01-11T12:35:53;20.00;;;7.25;;
72284;SDS011;60220;53.552;10.092;2024-01-11T12:38:20;21.50;;;7.53;;
72284;SDS011;60220;53.552;10.092;2024-01-11T12:40:46;24.55;;;8.18;;
72284;SDS011;60220;53.552;10.092;2024-01-11T12:43:13;29.48;;;9.20;;
72284;SDS011;60220;53.552;10.092;2024-01-11T12:45:43;23.65;;;8.32;;
72284;SDS011;60220;53.552;10.092;2024-01-11T12:48:12;30.40;;;9.07;;
72284;SDS011;60220;53.552;10.092;2024-01-11T12:50:44;28.55;;;8.45;;
72284;SDS011;60220;53.552;10.092;2024-01-11T12:53:11;23.27;;;7.90;;
72284;SDS011;60220;53.552;10.092;2024-01-11T12:55:43;25.20;;;8.68;;
72284;SDS011;60220;53.552;10.092;2024-01-11T12:58:10;21.23;;;7.43;;
72284;SDS011;60220;53.552;10.092;2024-01-11T13:00:37;25.08;;;8.18;;
72284;SDS011;60220;53.552;10.092;2024-01-11T13:03:05;39.08;;;9.90;;
72284;SDS011;60220;53.552;10.092;2024-01-11T13:05:34;25.27;;;8.32;;
72284;SDS011;60220;53.552;10.092;2024-01-11T13:08:01;27.60;;;8.98;;
72284;SDS011;60220;53.552;10.092;2024-01-11T13:10:32;27.00;;;9.32;;
72284;SDS011;60220;53.552;10.092;2024-01-11T13:12:58;26.25;;;9.25;;
72284;SDS011;60220;53.552;10.092;2024-01-11T13:15:26;28.33;;;8.32;;
72284;SDS011;60220;53.552;10.092;2024-01-11T13:17:54;34.22;;;8.23;;
72284;SDS011;60220;53.552;10.092;2024-01-11T13:20:22;21.50;;;7.65;;
72284;SDS011;60220;53.552;10.092;2024-01-11T13:22:49;31.85;;;10.45;;
72284;SDS011;60220;53.552;10.092;2024-01-11T13:25:16;27.60;;;8.43;;
72284;SDS011;60220;53.552;10.092;2024-01-11T13:27:45;26.90;;;8.88;;
72284;SDS011;60220;53.552;10.092;2024-01-11T13:30:12;21.05;;;7.88;;
72284;SDS011;60220;53.552;10.092;2024-01-11T13:32:39;20.23;;;7.38;;
72284;SDS011;60220;53.552;10.092;2024-01-11T13:35:06;28.52;;;8.13;;
72284;SDS011;60220;53.552;10.092;2024-01-11T13:37:34;21.90;;;8.13;;
72284;SDS011;60220;53.552;10.092;2024-01-11T13:40:01;20.70;;;7.60;;
72284;SDS011;60220;53.552;10.092;2024-01-11T13:42:28;28.48;;;9.20;;
72284;SDS011;60220;53.552;10.092;2024-01-11T13:44:57;24.08;;;8.75;;
72284;SDS011;60220;53.552;10.092;2024-01-11T13:47:25;22.27;;;7.70;;
72284;SDS011;60220;53.552;10.092;2024-01-11T13:49:52;27.27;;;7.63;;
72284;SDS011;60220;53.552;10.092;2024-01-11T13:52:20;25.85;;;7.40;;
72284;SDS011;60220;53.552;10.092;2024-01-11T13:54:48;29.50;;;8.82;;
72284;SDS011;60220;53.552;10.092;2024-01-11T13:57:15;21.88;;;8.05;;
72284;SDS011;60220;53.552;10.092;2024-01-11T13:59:42;21.85;;;8.15;;
72284;SDS011;60220;53.552;10.092;2024-01-11T14:02:09;26.00;;;7.20;;
72284;SDS011;60220;53.552;10.092;2024-01-11T14:04:35;25.33;;;7.95;;
72284;SDS011;60220;53.552;10.092;2024-01-11T14:07:04;24.77;;;8.82;;
72284;SDS011;60220;53.552;10.092;2024-01-11T14:09:31;33.05;;;8.73;;
72284;SDS011;60220;53.552;10.092;2024-01-11T14:11:59;27.13;;;7.50;;
72284;SDS011;60220;53.552;10.092;2024-01-11T14:14:29;26.50;;;7.78;;
72284;SDS011;60220;53.552;10.092;2024-01-11T14:16:55;28.83;;;8.48;;
72284;SDS011;60220;53.552;10.092;2024-01-11T14:19:22;31.30;;;8.00;;
72284;SDS011;60220;53.552;10.092;2024-01-11T14:21:49;29.50;;;7.80;;